Weather at Brisbane International Airport

Public forecast

Using degrees Celsius for public forecast. Weather courtesy of forecast.io.

Current aviation weather report (METAR) for Brisbane International Airport

Retrieved 2021/01/20 05:30 UTC (0 seconds ago):

YBBN 200530Z 12012KT 9999 FEW027 SCT050 25/17 Q1016

Aviation forecast (TAF) for Brisbane International Airport

Retrieved 2021-01-20 02:40 UTC (3 hours ago):

TAF YBBN 200208Z 2002/2106 13014KT 9999 SCT030 BKN050 FM200900 13010KT 9999 FEW025 SCT040 FM201300 19007KT 9999 -SHRA SCT025 BKN040 FM202300 13013KT 9999 NSW SCT040